Time;durP1;ratioP1;P1;durP2;ratioP2;P2;SDS_P1;SDS_P2;PMS_P1;PMS_P2;Temp;Humidity;BMP_temperature;BMP_pressure;BME280_temperature;BME280_humidity;BME280_pressure;Samples;Min_cycle;Max_cycle;Signal;HPM_P1;HPM_P2
2023/04/22 00:00:44;;;;;;;3.40;3.10;;;14.30;99.90;;;;;;5094528;28;20196;-69
2023/04/22 00:03:11;;;;;;;3.57;3.27;;;14.30;99.90;;;;;;5094446;28;20201;-69
2023/04/22 00:05:37;;;;;;;4.00;3.60;;;14.20;99.90;;;;;;5093911;28;20262;-68
2023/04/22 00:08:04;;;;;;;5.93;3.10;;;14.20;99.90;;;;;;5094189;28;20580;-68
2023/04/22 00:10:31;;;;;;;4.33;3.70;;;14.20;99.90;;;;;;5094279;28;20200;-68
2023/04/22 00:12:58;;;;;;;3.77;3.03;;;14.10;99.90;;;;;;5094223;28;20212;-68
2023/04/22 00:15:26;;;;;;;3.80;3.50;;;14.10;99.90;;;;;;5093837;28;20777;-70
2023/04/22 00:17:53;;;;;;;4.57;3.77;;;14.10;99.90;;;;;;5094108;28;20204;-69
2023/04/22 00:20:21;;;;;;;4.40;4.00;;;14.10;99.90;;;;;;5093905;28;20227;-68
2023/04/22 00:22:48;;;;;;;4.17;3.60;;;14.00;99.90;;;;;;5094008;28;20212;-68
2023/04/22 00:25:14;;;;;;;4.43;3.60;;;14.00;99.90;;;;;;5093674;28;20224;-71
2023/04/22 00:27:41;;;;;;;4.80;3.67;;;13.80;99.90;;;;;;5093730;28;20253;-68
2023/04/22 00:30:09;;;;;;;4.50;3.57;;;13.80;99.90;;;;;;5093846;28;20565;-69
2023/04/22 00:32:37;;;;;;;5.50;4.03;;;13.70;99.90;;;;;;5093910;28;20210;-68
2023/04/22 00:35:05;;;;;;;4.80;4.00;;;13.70;99.90;;;;;;5093831;28;20291;-68
2023/04/22 00:37:31;;;;;;;4.70;3.53;;;13.80;99.90;;;;;;5094559;28;20208;-68
2023/04/22 00:39:58;;;;;;;5.47;3.60;;;13.80;99.90;;;;;;5093424;28;20695;-69
2023/04/22 00:42:26;;;;;;;3.67;3.17;;;13.70;99.90;;;;;;5094015;28;20808;-68
2023/04/22 00:44:53;;;;;;;4.50;3.70;;;13.80;99.90;;;;;;5093208;28;20318;-69
2023/04/22 00:47:20;;;;;;;4.57;3.53;;;13.80;99.90;;;;;;5093267;28;20208;-69
2023/04/22 00:49:50;;;;;;;4.93;3.50;;;13.80;99.90;;;;;;5093369;28;20209;-71
2023/04/22 00:52:16;;;;;;;3.57;3.00;;;13.70;99.90;;;;;;5093603;28;20211;-68
2023/04/22 00:54:43;;;;;;;3.97;3.40;;;13.60;99.90;;;;;;5093096;28;20259;-71
2023/04/22 00:57:10;;;;;;;3.90;3.47;;;13.70;99.90;;;;;;5093257;28;20212;-67
2023/04/22 00:59:38;;;;;;;3.40;3.10;;;13.70;99.90;;;;;;5093102;28;20216;-68
2023/04/22 01:02:05;;;;;;;5.20;3.57;;;13.70;99.90;;;;;;5093175;28;20208;-68
2023/04/22 01:04:31;;;;;;;4.27;3.53;;;13.80;99.90;;;;;;5093152;28;20231;-68
2023/04/22 01:07:01;;;;;;;5.83;3.50;;;13.80;99.90;;;;;;5092965;28;20208;-68
2023/04/22 01:09:28;;;;;;;3.73;3.40;;;13.80;99.90;;;;;;5093156;28;20258;-70
2023/04/22 01:11:55;;;;;;;5.80;3.50;;;13.80;99.90;;;;;;5093028;28;20216;-68
2023/04/22 01:14:22;;;;;;;4.73;3.50;;;13.80;99.90;;;;;;5092908;28;20232;-68
2023/04/22 01:16:49;;;;;;;3.70;3.40;;;13.80;99.90;;;;;;5092399;28;20236;-68
2023/04/22 01:19:16;;;;;;;5.70;3.90;;;13.80;99.90;;;;;;5093027;28;20587;-69
2023/04/22 01:21:44;;;;;;;15.40;13.30;;;13.70;99.90;;;;;;5092873;28;20211;-69
2023/04/22 01:24:13;;;;;;;5.77;3.60;;;13.70;99.90;;;;;;5092524;28;20220;-68
2023/04/22 01:26:39;;;;;;;5.00;3.93;;;13.70;99.90;;;;;;5092381;28;20278;-68
2023/04/22 01:29:06;;;;;;;4.17;3.50;;;13.70;99.90;;;;;;5092559;28;20210;-70
2023/04/22 01:31:34;;;;;;;4.37;3.70;;;13.70;99.90;;;;;;5092714;28;20211;-68
2023/04/22 01:34:01;;;;;;;4.13;3.70;;;13.70;99.90;;;;;;5115126;22;20365;-61
2023/04/22 01:36:28;;;;;;;5.30;3.67;;;13.70;99.90;;;;;;5063965;28;20279;-60
2023/04/22 01:38:56;;;;;;;4.80;4.30;;;13.60;99.90;;;;;;5075864;28;20239;-60
2023/04/22 01:41:25;;;;;;;5.47;3.63;;;13.60;99.90;;;;;;5075510;28;20258;-60
2023/04/22 01:43:53;;;;;;;4.40;3.37;;;13.60;99.90;;;;;;5075619;28;20201;-60
2023/04/22 01:46:20;;;;;;;3.97;3.57;;;13.50;99.90;;;;;;5075022;28;20633;-60
2023/04/22 01:48:50;;;;;;;3.87;3.47;;;13.40;99.90;;;;;;5075369;28;20702;-61
2023/04/22 01:51:19;;;;;;;7.03;3.53;;;13.20;99.90;;;;;;5075583;28;20209;-61
2023/04/22 01:53:46;;;;;;;6.57;3.60;;;13.00;99.90;;;;;;5075730;28;20224;-61
2023/04/22 01:56:12;;;;;;;5.10;3.27;;;12.90;99.90;;;;;;5076337;28;20259;-61
2023/04/22 01:58:41;;;;;;;3.90;3.50;;;12.70;99.90;;;;;;5075989;28;20201;-60
2023/04/22 02:01:09;;;;;;;4.23;3.43;;;12.50;99.90;;;;;;5076281;28;20240;-60
2023/04/22 02:03:36;;;;;;;4.57;3.87;;;12.50;99.90;;;;;;5076337;28;20205;-60
2023/04/22 02:06:04;;;;;;;5.30;4.33;;;12.50;99.90;;;;;;5075954;28;20709;-60
2023/04/22 02:08:30;;;;;;;4.30;3.90;;;12.50;99.90;;;;;;5076026;28;20227;-60
2023/04/22 02:10:59;;;;;;;6.27;4.57;;;12.50;99.90;;;;;;5076127;28;20205;-60
2023/04/22 02:13:26;;;;;;;5.33;4.83;;;12.60;99.90;;;;;;5076106;28;20208;-60
2023/04/22 02:15:54;;;;;;;5.17;4.63;;;12.60;99.90;;;;;;5075581;28;20281;-60
2023/04/22 02:18:21;;;;;;;5.33;4.83;;;12.60;99.90;;;;;;5076269;28;20215;-60
2023/04/22 02:20:48;;;;;;;6.00;4.60;;;12.60;99.90;;;;;;5076161;28;20234;-60
2023/04/22 02:23:15;;;;;;;9.13;4.70;;;12.70;99.90;;;;;;5076020;28;20208;-60
2023/04/22 02:25:49;;;;;;;5.70;4.00;;;12.60;99.90;;;;;;5076297;28;20303;-60
2023/04/22 02:28:16;;;;;;;5.00;3.93;;;12.60;99.90;;;;;;5075983;28;20209;-60
2023/04/22 02:30:42;;;;;;;5.40;4.27;;;12.60;99.90;;;;;;5076261;28;20303;-60
2023/04/22 02:33:11;;;;;;;4.57;4.13;;;12.50;99.90;;;;;;5076274;28;20566;-60
2023/04/22 02:35:38;;;;;;;4.27;3.87;;;12.50;99.90;;;;;;5075612;28;20766;-60
2023/04/22 02:38:05;;;;;;;4.53;3.90;;;12.40;99.90;;;;;;5076156;28;20212;-60
2023/04/22 02:40:31;;;;;;;4.80;4.00;;;12.30;99.90;;;;;;5075717;28;20235;-61
2023/04/22 02:42:58;;;;;;;4.37;3.97;;;12.20;99.90;;;;;;5076587;28;20634;-60
2023/04/22 02:45:25;;;;;;;4.37;3.97;;;12.30;99.90;;;;;;5076051;28;20229;-61
2023/04/22 02:47:52;;;;;;;5.53;3.73;;;12.30;99.90;;;;;;5075707;28;20205;-61
2023/04/22 02:50:20;;;;;;;4.73;4.23;;;12.40;99.90;;;;;;5075371;28;20213;-61
2023/04/22 02:52:47;;;;;;;6.83;4.23;;;12.40;99.90;;;;;;5076628;28;20572;-61
2023/04/22 02:55:14;;;;;;;3.97;3.57;;;12.40;99.90;;;;;;5075876;28;20862;-61
2023/04/22 02:57:41;;;;;;;4.23;3.80;;;12.40;99.90;;;;;;5076195;28;20227;-61
2023/04/22 03:00:10;;;;;;;4.70;4.30;;;12.30;99.90;;;;;;5075842;28;20263;-60
2023/04/22 03:02:37;;;;;;;4.97;3.93;;;12.30;99.90;;;;;;5077346;28;20205;-61
2023/04/22 03:05:04;;;;;;;3.90;3.47;;;12.20;99.90;;;;;;5079768;28;20239;-61
2023/04/22 03:07:32;;;;;;;4.40;3.87;;;12.10;99.90;;;;;;5080537;28;20205;-61
2023/04/22 03:09:59;;;;;;;4.27;3.87;;;12.10;99.90;;;;;;5079793;28;20295;-61
2023/04/22 03:12:26;;;;;;;4.23;3.80;;;12.20;99.90;;;;;;5079885;28;20603;-61
2023/04/22 03:14:53;;;;;;;4.63;4.00;;;12.20;99.90;;;;;;5079693;28;20319;-61
2023/04/22 03:17:20;;;;;;;4.60;4.20;;;12.20;99.90;;;;;;5079480;28;20287;-60
2023/04/22 03:19:47;;;;;;;5.13;4.63;;;12.20;99.90;;;;;;5079362;28;20233;-61
2023/04/22 03:22:14;;;;;;;4.77;3.80;;;12.30;99.90;;;;;;5079674;28;20268;-61
2023/04/22 03:24:42;;;;;;;9.77;4.03;;;12.30;99.90;;;;;;5079315;28;20225;-61
2023/04/22 03:27:10;;;;;;;6.60;3.70;;;12.30;99.90;;;;;;5079093;28;20262;-61
2023/04/22 03:29:36;;;;;;;4.30;3.70;;;12.30;99.90;;;;;;5079008;28;20212;-61
2023/04/22 03:32:03;;;;;;;4.50;3.80;;;12.40;99.90;;;;;;5078716;28;20212;-61
2023/04/22 03:34:30;;;;;;;4.57;3.77;;;12.40;99.90;;;;;;5079053;28;20225;-60
2023/04/22 03:36:57;;;;;;;4.37;3.87;;;12.50;99.90;;;;;;5078809;28;20212;-61
2023/04/22 03:39:24;;;;;;;4.27;3.87;;;12.60;99.90;;;;;;5078964;28;20205;-61
2023/04/22 03:41:52;;;;;;;5.07;3.80;;;12.70;99.90;;;;;;5079811;28;20252;-61
2023/04/22 03:44:19;;;;;;;3.83;3.40;;;12.60;99.90;;;;;;5079634;28;20656;-61
2023/04/22 03:46:46;;;;;;;5.70;5.03;;;12.50;99.90;;;;;;5079636;28;20304;-61
2023/04/22 03:49:12;;;;;;;4.27;3.83;;;12.50;99.90;;;;;;5079465;28;20228;-61
2023/04/22 03:51:39;;;;;;;3.83;3.43;;;12.60;99.90;;;;;;5078075;28;20703;-61
2023/04/22 03:54:06;;;;;;;4.87;3.37;;;12.70;99.90;;;;;;5079804;28;20672;-61
2023/04/22 03:56:33;;;;;;;3.40;3.13;;;12.60;99.90;;;;;;5079603;28;20236;-61
2023/04/22 03:59:01;;;;;;;3.50;3.03;;;12.60;99.90;;;;;;5079391;28;20606;-61
2023/04/22 04:01:28;;;;;;;3.83;3.50;;;12.70;99.90;;;;;;5078524;28;20201;-61
2023/04/22 04:03:55;;;;;;;3.93;3.63;;;12.70;99.90;;;;;;5079147;28;20200;-60
2023/04/22 04:06:22;;;;;;;3.43;3.13;;;12.60;99.90;;;;;;5079148;28;20260;-61
2023/04/22 04:08:49;;;;;;;5.67;3.50;;;12.60;99.90;;;;;;5078452;28;20213;-61
2023/04/22 04:11:16;;;;;;;4.53;3.20;;;12.50;99.90;;;;;;5077908;28;20725;-61
2023/04/22 04:13:42;;;;;;;3.67;3.20;;;12.50;99.90;;;;;;5077387;28;20209;-61
2023/04/22 04:16:11;;;;;;;3.47;3.17;;;12.40;99.90;;;;;;5076968;28;20707;-61
2023/04/22 04:18:38;;;;;;;5.80;3.60;;;12.40;99.90;;;;;;5079097;28;20268;-61
2023/04/22 04:21:06;;;;;;;3.97;3.30;;;12.30;99.90;;;;;;5079251;28;20236;-61
2023/04/22 04:23:32;;;;;;;3.83;3.50;;;12.10;99.90;;;;;;5079045;28;20205;-61
2023/04/22 04:26:01;;;;;;;3.83;3.43;;;12.00;99.90;;;;;;5078558;28;20288;-61
2023/04/22 04:28:31;;;;;;;4.53;3.90;;;11.80;99.90;;;;;;5078893;28;20216;-61
2023/04/22 04:30:58;;;;;;;8.10;4.67;;;11.80;99.90;;;;;;5079771;28;20227;-60
2023/04/22 04:33:27;;;;;;;8.00;5.03;;;11.70;99.90;;;;;;5079104;28;20288;-60
2023/04/22 04:35:54;;;;;;;8.00;5.83;;;11.70;99.90;;;;;;5078631;28;20275;-61
2023/04/22 04:38:21;;;;;;;9.67;6.53;;;11.70;99.90;;;;;;5079256;28;20267;-61
2023/04/22 04:40:50;;;;;;;7.53;5.37;;;11.80;99.90;;;;;;5078609;28;20215;-60
2023/04/22 04:43:17;;;;;;;7.70;4.93;;;11.90;99.90;;;;;;5077972;28;20208;-61
2023/04/22 04:45:45;;;;;;;5.20;4.23;;;11.90;99.90;;;;;;5077952;28;20278;-61
2023/04/22 04:48:13;;;;;;;4.57;4.03;;;12.00;99.90;;;;;;5077518;28;20215;-60
2023/04/22 04:50:42;;;;;;;3.93;3.37;;;12.10;99.90;;;;;;5078602;28;20675;-60
2023/04/22 04:53:09;;;;;;;4.83;3.57;;;12.10;99.90;;;;;;5078933;28;20208;-60
2023/04/22 04:55:36;;;;;;;3.53;3.20;;;12.20;99.90;;;;;;5078569;28;20232;-60
2023/04/22 04:58:04;;;;;;;4.57;3.83;;;12.30;99.90;;;;;;5078343;28;20668;-61
2023/04/22 05:00:30;;;;;;;3.53;3.23;;;12.30;99.90;;;;;;5079236;28;20233;-61
2023/04/22 05:02:57;;;;;;;3.53;2.80;;;12.30;99.90;;;;;;5079295;28;20205;-60
2023/04/22 05:05:24;;;;;;;3.30;3.00;;;12.40;99.90;;;;;;5078526;28;20668;-61
2023/04/22 05:07:52;;;;;;;4.10;3.20;;;12.30;99.90;;;;;;5078747;28;20205;-61
2023/04/22 05:10:20;;;;;;;6.83;5.17;;;12.40;99.90;;;;;;5078956;28;20661;-61
2023/04/22 05:12:47;;;;;;;3.77;3.40;;;12.60;99.90;;;;;;5078432;28;20626;-60
2023/04/22 05:15:14;;;;;;;4.87;3.50;;;12.70;99.90;;;;;;5078288;28;20228;-61
2023/04/22 05:17:41;;;;;;;4.43;3.57;;;12.90;99.90;;;;;;5078000;28;20205;-61
2023/04/22 05:20:08;;;;;;;5.23;3.90;;;13.00;99.90;;;;;;5077958;28;20287;-61
2023/04/22 05:22:36;;;;;;;9.27;5.33;;;13.00;99.90;;;;;;5078506;28;20207;-60
2023/04/22 05:25:05;;;;;;;4.70;4.20;;;13.10;99.90;;;;;;5078805;28;20730;-60
2023/04/22 05:27:31;;;;;;;4.50;3.97;;;13.20;99.90;;;;;;5077727;28;20582;-62
2023/04/22 05:29:58;;;;;;;3.83;3.50;;;13.20;99.90;;;;;;5079199;28;20212;-61
2023/04/22 05:32:26;;;;;;;5.10;3.23;;;13.30;99.90;;;;;;5077179;28;20207;-61
2023/04/22 05:34:53;;;;;;;3.07;2.73;;;13.40;99.90;;;;;;5078191;28;20220;-60
2023/04/22 05:37:20;;;;;;;4.47;2.80;;;13.50;99.90;;;;;;5077691;28;20653;-61
2023/04/22 05:39:46;;;;;;;3.97;2.70;;;13.60;99.90;;;;;;5078125;28;20244;-59
2023/04/22 05:42:14;;;;;;;3.40;2.97;;;13.50;99.90;;;;;;5078184;28;20212;-60
2023/04/22 05:44:41;;;;;;;3.53;2.77;;;13.50;99.90;;;;;;5077757;28;20304;-59
2023/04/22 05:47:08;;;;;;;3.10;2.80;;;13.50;99.90;;;;;;5077614;28;20292;-60
2023/04/22 05:49:35;;;;;;;4.53;3.00;;;13.50;99.90;;;;;;5077873;28;20597;-60
2023/04/22 05:52:02;;;;;;;3.20;2.77;;;13.50;99.90;;;;;;5078173;28;20201;-60
2023/04/22 05:54:29;;;;;;;4.23;2.93;;;13.50;99.90;;;;;;5077654;28;20577;-60
2023/04/22 05:56:57;;;;;;;3.30;2.70;;;13.50;99.90;;;;;;5076091;28;20225;-60
2023/04/22 05:59:25;;;;;;;5.13;2.70;;;13.50;99.90;;;;;;5076089;28;20718;-60
2023/04/22 06:01:52;;;;;;;2.67;2.43;;;13.60;99.90;;;;;;5076363;28;20659;-60
2023/04/22 06:04:19;;;;;;;4.80;2.60;;;13.70;99.90;;;;;;5076932;28;20801;-60
2023/04/22 06:06:46;;;;;;;7.10;2.63;;;13.90;99.90;;;;;;5075711;28;20219;-60
2023/04/22 06:09:13;;;;;;;4.00;3.30;;;14.20;99.90;;;;;;5076588;28;20201;-60
2023/04/22 06:11:40;;;;;;;6.03;4.67;;;14.60;99.90;;;;;;5076702;28;20209;-60
2023/04/22 06:14:07;;;;;;;5.33;3.27;;;15.00;99.90;;;;;;5076518;28;20277;-60
2023/04/22 06:16:35;;;;;;;4.13;2.97;;;15.50;99.90;;;;;;5075851;28;20220;-60
2023/04/22 06:19:02;;;;;;;4.73;3.20;;;15.90;99.90;;;;;;5075560;28;20305;-60
2023/04/22 06:21:31;;;;;;;10.80;8.00;;;16.20;99.90;;;;;;5075613;28;20209;-60
2023/04/22 06:23:58;;;;;;;4.82;2.92;;;16.50;99.90;;;;;;5075354;28;20239;-61
2023/04/22 06:26:25;;;;;;;6.90;3.90;;;16.90;99.90;;;;;;5074847;28;20672;-60
2023/04/22 06:28:52;;;;;;;2.40;2.10;;;17.60;99.90;;;;;;5075673;28;20204;-60
2023/04/22 06:31:19;;;;;;;1.85;1.75;;;18.30;99.90;;;;;;5075353;28;20213;-61
2023/04/22 06:33:47;;;;;;;2.50;1.70;;;18.80;99.90;;;;;;5075615;28;20205;-61
2023/04/22 06:36:14;;;;;;;2.08;1.75;;;19.30;99.90;;;;;;5075325;28;20255;-60
2023/04/22 06:38:41;;;;;;;3.90;2.03;;;19.80;99.90;;;;;;5078100;28;20205;-61
2023/04/22 06:41:08;;;;;;;3.38;2.17;;;20.40;99.90;;;;;;5079646;28;20208;-60
2023/04/22 06:43:35;;;;;;;2.83;2.22;;;20.80;99.90;;;;;;5078590;28;20212;-61
2023/04/22 06:46:01;;;;;;;3.35;2.22;;;20.90;99.90;;;;;;5079035;28;20221;-61
2023/04/22 06:48:28;;;;;;;7.45;3.78;;;20.70;99.90;;;;;;5079121;28;20236;-61
2023/04/22 06:50:56;;;;;;;3.17;2.20;;;20.70;99.90;;;;;;5077583;28;20666;-61
2023/04/22 06:53:23;;;;;;;2.55;2.20;;;20.70;99.90;;;;;;5077769;28;20205;-60
2023/04/22 06:55:52;;;;;;;3.30;2.80;;;20.90;99.90;;;;;;5076801;28;20229;-60
2023/04/22 06:58:18;;;;;;;2.85;2.10;;;21.00;99.90;;;;;;5076225;28;20274;-60
2023/04/22 07:00:45;;;;;;;7.55;4.90;;;21.20;99.90;;;;;;5076387;28;20204;-60
2023/04/22 07:03:12;;;;;;;3.08;2.20;;;21.40;99.90;;;;;;5077026;28;20211;-60
2023/04/22 07:05:39;;;;;;;7.18;3.08;;;21.60;99.90;;;;;;5077866;28;20617;-61
2023/04/22 07:08:07;;;;;;;2.70;2.00;;;21.80;99.90;;;;;;5078638;28;20208;-61
2023/04/22 07:10:34;;;;;;;2.25;2.00;;;21.80;99.90;;;;;;5079199;28;20209;-60
2023/04/22 07:13:01;;;;;;;2.95;1.50;;;21.70;99.40;;;;;;5077342;28;20235;-60
2023/04/22 07:15:28;;;;;;;3.60;1.98;;;21.40;99.80;;;;;;5077667;28;20229;-60
2023/04/22 07:17:55;;;;;;;2.22;1.58;;;21.10;99.90;;;;;;5078235;28;20211;-60
2023/04/22 07:20:22;;;;;;;2.05;1.77;;;20.90;99.90;;;;;;5078182;28;20204;-61
2023/04/22 07:22:48;;;;;;;2.20;1.58;;;20.70;99.90;;;;;;5077943;28;20231;-60
2023/04/22 07:25:17;;;;;;;2.17;1.50;;;20.70;99.90;;;;;;5077806;28;20228;-60
2023/04/22 07:27:44;;;;;;;2.22;1.70;;;21.10;99.90;;;;;;5076364;28;20623;-60
2023/04/22 07:30:12;;;;;;;2.30;1.70;;;22.00;99.50;;;;;;5077168;28;20235;-60
2023/04/22 07:32:39;;;;;;;1.45;1.30;;;22.80;98.50;;;;;;5076901;28;20216;-60
2023/04/22 07:35:06;;;;;;;1.27;1.15;;;23.40;97.30;;;;;;5077209;28;20319;-60
2023/04/22 07:37:33;;;;;;;2.65;1.13;;;23.80;95.80;;;;;;5076550;28;20216;-60
2023/04/22 07:40:00;;;;;;;0.90;0.90;;;23.80;95.50;;;;;;5076562;28;20254;-62
2023/04/22 07:42:28;;;;;;;1.13;0.90;;;23.90;94.50;;;;;;5076995;28;20236;-60
2023/04/22 07:44:55;;;;;;;1.77;0.98;;;24.30;93.40;;;;;;5077602;28;20228;-60
2023/04/22 07:47:22;;;;;;;1.70;1.02;;;24.80;92.50;;;;;;5077588;28;20203;-60
2023/04/22 07:49:49;;;;;;;2.38;1.33;;;25.60;90.90;;;;;;5076701;28;20624;-60
2023/04/22 07:52:16;;;;;;;1.20;1.05;;;26.20;88.90;;;;;;5077041;28;20703;-61
2023/04/22 07:54:42;;;;;;;4.20;1.50;;;26.70;86.80;;;;;;5076390;28;20213;-60
2023/04/22 07:57:09;;;;;;;3.03;1.60;;;27.20;85.00;;;;;;5076165;28;20256;-60
2023/04/22 07:59:37;;;;;;;2.95;1.50;;;27.50;83.40;;;;;;5076284;28;20272;-61
2023/04/22 08:02:04;;;;;;;2.22;1.50;;;27.30;83.30;;;;;;5076036;28;20205;-61
2023/04/22 08:04:31;;;;;;;2.50;1.58;;;27.50;82.80;;;;;;5076396;28;20235;-61
2023/04/22 08:06:58;;;;;;;1.58;1.40;;;27.90;79.90;;;;;;5076033;28;20334;-60
2023/04/22 08:09:25;;;;;;;2.05;1.10;;;28.30;78.70;;;;;;5076336;28;20305;-61
2023/04/22 08:11:52;;;;;;;1.48;1.23;;;28.80;77.90;;;;;;5076742;28;20586;-61
2023/04/22 08:14:19;;;;;;;3.35;1.40;;;28.80;75.80;;;;;;5075850;28;20324;-61
2023/04/22 08:16:47;;;;;;;1.83;1.30;;;28.50;76.10;;;;;;5075790;28;20578;-60
2023/04/22 08:19:14;;;;;;;1.33;1.20;;;28.10;76.80;;;;;;5075914;28;20224;-60
2023/04/22 08:21:40;;;;;;;1.20;0.95;;;27.80;75.80;;;;;;5076060;28;20305;-60
2023/04/22 08:24:07;;;;;;;1.42;1.00;;;27.40;76.30;;;;;;5075785;28;20258;-61
2023/04/22 08:26:35;;;;;;;1.30;1.20;;;27.00;76.90;;;;;;5077054;28;20208;-60
2023/04/22 08:29:02;;;;;;;2.92;1.10;;;26.60;77.70;;;;;;5076766;28;20209;-60
2023/04/22 08:31:29;;;;;;;1.27;1.17;;;26.20;77.90;;;;;;5076081;28;20204;-60
2023/04/22 08:33:57;;;;;;;2.10;1.20;;;25.80;78.40;;;;;;5076127;28;20586;-60
2023/04/22 08:36:26;;;;;;;3.22;1.45;;;25.50;79.70;;;;;;5076464;28;20780;-61
2023/04/22 08:38:53;;;;;;;2.50;1.40;;;25.30;79.60;;;;;;5076852;28;20620;-61
2023/04/22 08:41:23;;;;;;;1.35;1.05;;;25.20;80.40;;;;;;5076315;28;20201;-61
2023/04/22 08:43:50;;;;;;;3.25;1.20;;;25.10;81.80;;;;;;5076118;28;20216;-60
2023/04/22 08:46:18;;;;;;;1.38;1.10;;;25.20;82.60;;;;;;5075452;28;20324;-61
2023/04/22 08:48:46;;;;;;;2.63;1.30;;;25.40;81.50;;;;;;5076045;28;20632;-61
2023/04/22 08:51:16;;;;;;;3.92;1.42;;;25.40;78.30;;;;;;5075019;28;20296;-61
2023/04/22 08:53:43;;;;;;;1.63;1.42;;;25.20;76.60;;;;;;5075009;28;20205;-61
2023/04/22 08:56:12;;;;;;;2.67;1.40;;;24.90;77.20;;;;;;5074705;28;20229;-61
2023/04/22 08:58:40;;;;;;;1.65;1.40;;;24.80;78.20;;;;;;5074840;28;20291;-61
2023/04/22 09:01:07;;;;;;;2.58;1.33;;;24.60;78.20;;;;;;5074770;28;20273;-61
2023/04/22 09:03:35;;;;;;;1.88;1.40;;;24.50;78.60;;;;;;5075027;28;20216;-61
2023/04/22 09:06:04;;;;;;;3.20;1.95;;;24.50;78.20;;;;;;5074546;28;20688;-61
2023/04/22 09:08:33;;;;;;;1.67;1.17;;;24.40;77.00;;;;;;5074596;28;20209;-61
2023/04/22 09:11:00;;;;;;;1.20;1.10;;;24.50;76.50;;;;;;5074836;28;20597;-61
2023/04/22 09:13:27;;;;;;;1.83;1.52;;;24.40;76.10;;;;;;5074114;28;20643;-61
2023/04/22 09:15:53;;;;;;;1.70;1.20;;;24.50;75.90;;;;;;5073795;28;20292;-60
2023/04/22 09:18:21;;;;;;;1.67;1.20;;;24.50;74.80;;;;;;5074366;28;20212;-61
2023/04/22 09:20:48;;;;;;;1.70;1.23;;;24.60;74.10;;;;;;5074884;28;20236;-61
2023/04/22 09:23:15;;;;;;;1.58;1.10;;;24.60;73.90;;;;;;5074395;28;20732;-61
2023/04/22 09:25:45;;;;;;;1.38;1.25;;;24.90;74.20;;;;;;5074127;28;20233;-61
2023/04/22 09:28:16;;;;;;;2.42;1.23;;;25.10;73.60;;;;;;5073993;28;20654;-61
2023/04/22 09:30:45;;;;;;;1.10;1.00;;;25.20;74.10;;;;;;5074158;28;20204;-61
2023/04/22 09:33:13;;;;;;;2.50;1.50;;;25.10;72.60;;;;;;5074357;28;20212;-61
2023/04/22 09:35:41;;;;;;;1.30;1.02;;;24.80;73.10;;;;;;5073576;28;20244;-61
2023/04/22 09:38:10;;;;;;;2.15;1.25;;;24.60;72.90;;;;;;5073926;28;20227;-61
2023/04/22 09:40:38;;;;;;;1.13;1.00;;;24.80;74.00;;;;;;5073645;28;20224;-61
2023/04/22 09:43:08;;;;;;;2.67;1.40;;;24.90;72.70;;;;;;5074252;28;20235;-61
2023/04/22 09:45:36;;;;;;;1.30;1.08;;;25.00;72.50;;;;;;5073959;28;20251;-64
2023/04/22 09:48:07;;;;;;;1.30;1.00;;;25.30;72.20;;;;;;5074817;28;20269;-60
2023/04/22 09:50:35;;;;;;;1.30;1.20;;;25.50;71.40;;;;;;5073984;28;20204;-60
2023/04/22 09:53:04;;;;;;;1.83;1.20;;;25.40;71.40;;;;;;5073382;28;20212;-60
2023/04/22 09:55:33;;;;;;;2.10;1.25;;;25.50;70.60;;;;;;5073154;28;20341;-60
2023/04/22 09:58:08;;;;;;;2.13;1.30;;;25.60;71.30;;;;;;5072945;28;20719;-61
2023/04/22 10:00:37;;;;;;;3.03;1.10;;;25.60;71.30;;;;;;5073200;28;20295;-61
2023/04/22 10:03:05;;;;;;;1.60;1.20;;;25.50;71.60;;;;;;5073688;28;20205;-61
2023/04/22 10:05:36;;;;;;;1.40;1.13;;;25.30;70.50;;;;;;5073475;28;20275;-61
2023/04/22 10:08:04;;;;;;;1.48;1.05;;;25.00;72.60;;;;;;5073139;28;20197;-61
2023/04/22 10:10:32;;;;;;;1.23;1.00;;;24.80;73.70;;;;;;5073272;28;20296;-61
2023/04/22 10:13:00;;;;;;;2.53;1.50;;;24.50;73.80;;;;;;5075019;28;20205;-61
2023/04/22 10:15:33;;;;;;;4.07;2.05;;;24.30;72.60;;;;;;5077225;28;20224;-61
2023/04/22 10:18:01;;;;;;;1.55;1.00;;;24.20;75.10;;;;;;5077006;28;20228;-61
2023/04/22 10:20:29;;;;;;;1.85;1.27;;;24.10;74.00;;;;;;5077041;28;20292;-61
2023/04/22 10:22:57;;;;;;;2.05;0.90;;;24.00;74.10;;;;;;5077278;28;20200;-62
2023/04/22 10:25:26;;;;;;;4.10;0.90;;;23.90;73.40;;;;;;5076646;28;20642;-61
2023/04/22 10:27:54;;;;;;;2.00;1.30;;;24.10;73.50;;;;;;5076405;28;20239;-61
2023/04/22 10:30:29;;;;;;;2.63;1.05;;;24.30;71.80;;;;;;5076970;28;20215;-62
2023/04/22 10:32:56;;;;;;;2.67;1.08;;;24.40;71.70;;;;;;5076838;28;20606;-61
2023/04/22 10:35:28;;;;;;;2.25;0.80;;;24.40;71.30;;;;;;5076143;28;20244;-61
2023/04/22 10:37:55;;;;;;;1.67;1.00;;;24.40;71.30;;;;;;5076036;28;20278;-62
2023/04/22 10:40:22;;;;;;;2.22;1.10;;;24.30;70.50;;;;;;5076536;28;20410;-61
2023/04/22 10:42:51;;;;;;;1.17;1.08;;;24.30;70.30;;;;;;5076353;28;20255;-62
2023/04/22 10:45:19;;;;;;;2.47;1.10;;;24.50;70.10;;;;;;5076076;28;20247;-62
2023/04/22 10:47:47;;;;;;;1.23;1.10;;;24.70;69.40;;;;;;5075901;28;20743;-61
2023/04/22 10:50:24;;;;;;;1.00;0.90;;;24.80;69.20;;;;;;5076294;28;20215;-61
2023/04/22 10:52:52;;;;;;;2.33;1.15;;;24.90;69.40;;;;;;5076030;28;20216;-62
2023/04/22 10:55:20;;;;;;;1.10;1.00;;;25.10;70.00;;;;;;5075993;28;20312;-61
2023/04/22 10:57:48;;;;;;;1.65;1.10;;;25.20;67.80;;;;;;5076122;28;20225;-61
2023/04/22 11:00:30;;;;;;;1.33;1.15;;;25.30;68.40;;;;;;5075939;28;20613;-62
2023/04/22 11:03:13;;;;;;;3.50;1.05;;;25.40;68.90;;;;;;5076367;28;20244;-62
2023/04/22 11:05:40;;;;;;;1.10;0.95;;;25.30;69.50;;;;;;5076220;28;20642;-61
2023/04/22 11:08:12;;;;;;;2.67;1.10;;;25.30;67.50;;;;;;5075927;28;20258;-60
2023/04/22 11:10:41;;;;;;;1.63;1.10;;;25.30;68.20;;;;;;5075370;28;20213;-63
2023/04/22 11:13:10;;;;;;;3.08;1.40;;;25.20;68.70;;;;;;5075903;28;20205;-60
2023/04/22 11:15:39;;;;;;;2.28;1.35;;;25.20;69.60;;;;;;5075568;28;20221;-61
2023/04/22 11:18:21;;;;;;;1.35;1.08;;;25.40;69.10;;;;;;5075259;28;20274;-60
2023/04/22 11:20:49;;;;;;;0.95;0.85;;;25.50;69.00;;;;;;5075519;28;20684;-61
2023/04/22 11:23:27;;;;;;;2.35;1.17;;;25.60;67.80;;;;;;5075473;28;20254;-61
2023/04/22 11:25:58;;;;;;;1.73;1.10;;;25.60;66.40;;;;;;5075186;28;20220;-60
2023/04/22 11:28:25;;;;;;;2.38;1.50;;;25.70;64.60;;;;;;5075066;28;20582;-60
2023/04/22 11:30:52;;;;;;;11.20;7.90;;;25.90;64.20;;;;;;5075216;28;20239;-60
2023/04/22 11:33:20;;;;;;;2.15;1.25;;;26.00;63.30;;;;;;5075206;28;20205;-60
2023/04/22 11:35:50;;;;;;;2.75;1.25;;;26.10;62.60;;;;;;5075218;28;20233;-60
2023/04/22 11:38:17;;;;;;;4.10;1.27;;;26.30;61.20;;;;;;5075261;28;20235;-60
2023/04/22 11:40:45;;;;;;;2.08;1.13;;;26.50;61.20;;;;;;5075038;28;20205;-60
2023/04/22 11:43:12;;;;;;;2.13;1.15;;;26.60;59.80;;;;;;5075087;28;20217;-60
2023/04/22 11:45:39;;;;;;;2.72;1.67;;;26.70;60.30;;;;;;5075162;28;20228;-60
2023/04/22 11:48:08;;;;;;;6.15;1.50;;;26.90;61.20;;;;;;5074592;28;20205;-60
2023/04/22 11:50:39;;;;;;;2.67;1.35;;;26.90;61.10;;;;;;5075115;28;20647;-60
2023/04/22 11:53:14;;;;;;;2.63;1.10;;;26.90;59.50;;;;;;5075325;28;20212;-60
2023/04/22 11:55:42;;;;;;;3.13;1.73;;;27.00;58.70;;;;;;5074834;28;20228;-60
2023/04/22 11:58:10;;;;;;;2.30;1.40;;;27.00;57.80;;;;;;5074599;28;20308;-60
2023/04/22 12:00:40;;;;;;;2.30;1.30;;;27.00;56.70;;;;;;5075345;28;20609;-60
2023/04/22 12:03:12;;;;;;;4.43;1.33;;;27.20;56.70;;;;;;5074985;28;20231;-60
2023/04/22 12:05:42;;;;;;;4.97;1.50;;;27.20;56.40;;;;;;5074699;28;20616;-60
2023/04/22 12:08:11;;;;;;;2.97;1.50;;;27.30;56.50;;;;;;5074264;28;20276;-60
2023/04/22 12:10:43;;;;;;;3.60;1.20;;;27.30;56.30;;;;;;5074602;28;20284;-60
2023/04/22 12:13:11;;;;;;;2.50;1.33;;;27.40;56.10;;;;;;5074901;28;20296;-60
2023/04/22 12:15:43;;;;;;;2.17;1.35;;;27.60;56.10;;;;;;5074819;28;20229;-61
2023/04/22 12:18:11;;;;;;;2.40;1.27;;;27.70;56.70;;;;;;5074420;28;20307;-60
2023/04/22 12:20:39;;;;;;;3.08;1.10;;;27.70;56.60;;;;;;5075008;28;20201;-61
2023/04/22 12:23:12;;;;;;;5.05;1.38;;;27.80;56.50;;;;;;5075151;28;20208;-60
2023/04/22 12:25:39;;;;;;;3.05;1.40;;;28.00;56.30;;;;;;5075141;28;20228;-60
2023/04/22 12:28:05;;;;;;;3.17;1.33;;;28.40;55.60;;;;;;5074122;28;20205;-61
2023/04/22 12:30:32;;;;;;;2.92;1.40;;;28.60;55.60;;;;;;5074202;28;20197;-60
2023/04/22 12:32:59;;;;;;;3.05;1.15;;;28.80;56.10;;;;;;5074071;28;20255;-60
2023/04/22 12:35:26;;;;;;;1.50;1.13;;;29.10;55.60;;;;;;5074123;28;20233;-63
2023/04/22 12:37:53;;;;;;;2.40;1.45;;;29.10;54.90;;;;;;5074319;28;20224;-63
2023/04/22 12:40:21;;;;;;;1.98;1.30;;;29.00;55.10;;;;;;5074901;28;20211;-63
2023/04/22 12:42:48;;;;;;;2.50;1.50;;;29.10;54.80;;;;;;5075223;28;20217;-63
2023/04/22 12:45:15;;;;;;;3.70;1.90;;;29.10;54.70;;;;;;5074465;28;20738;-63
2023/04/22 12:47:43;;;;;;;3.05;1.55;;;29.00;54.50;;;;;;5074757;28;20278;-63